createdAt,value
2023-03-13T00:01:13.701Z,9.18
2023-03-13T00:03:40.457Z,9.32
2023-03-13T00:06:07.436Z,9.04
2023-03-13T00:08:33.909Z,9.33
2023-03-13T00:11:11.187Z,9.22
2023-03-13T00:13:38.081Z,9.61
2023-03-13T00:16:07.178Z,9.57
2023-03-13T00:18:34.143Z,8.99
2023-03-13T00:21:00.590Z,9.42
2023-03-13T00:23:27.854Z,9.96
2023-03-13T00:26:14.978Z,9.42
2023-03-13T00:28:42.470Z,9.47
2023-03-13T00:31:20.180Z,9.59
2023-03-13T00:33:48.416Z,9.55
2023-03-13T00:36:17.609Z,9.49
2023-03-13T00:38:44.509Z,9.67
2023-03-13T00:41:14.246Z,9.52
2023-03-13T00:43:42.164Z,9.63
2023-03-13T00:46:09.241Z,9.52
2023-03-13T00:48:36.101Z,9.50
2023-03-13T00:51:03.222Z,9.44
2023-03-13T00:53:29.821Z,9.44
2023-03-13T00:55:58.801Z,9.55
2023-03-13T00:58:26.743Z,9.79
2023-03-13T01:00:53.818Z,9.43
2023-03-13T01:03:22.216Z,9.58
2023-03-13T01:05:59.136Z,9.96
2023-03-13T01:08:26.033Z,9.51
2023-03-13T01:11:00.751Z,9.62
2023-03-13T01:13:28.843Z,9.82
2023-03-13T01:15:55.603Z,9.90
2023-03-13T01:18:22.337Z,9.85
2023-03-13T01:20:48.827Z,9.79
2023-03-13T01:23:15.798Z,9.51
2023-03-13T01:25:42.762Z,9.72
2023-03-13T01:28:09.299Z,9.69
2023-03-13T01:30:35.817Z,9.46
2023-03-13T01:33:02.638Z,9.24
2023-03-13T01:35:29.118Z,9.80
2023-03-13T01:37:55.676Z,9.82
2023-03-13T01:40:22.193Z,9.60
2023-03-13T01:42:50.599Z,9.57
2023-03-13T01:46:00.321Z,9.96
2023-03-13T01:48:42.283Z,9.89
2023-03-13T01:51:16.979Z,9.58
2023-03-13T01:53:45.440Z,9.77
2023-03-13T01:56:17.544Z,9.93
2023-03-13T01:58:44.747Z,9.85
2023-03-13T02:01:11.931Z,9.99
2023-03-13T02:03:38.523Z,9.87
2023-03-13T02:06:06.324Z,9.93
2023-03-13T02:08:36.626Z,9.40
2023-03-13T02:11:18.241Z,9.87
2023-03-13T02:13:44.808Z,9.83
2023-03-13T02:16:11.642Z,9.73
2023-03-13T02:18:38.407Z,9.92
2023-03-13T02:21:15.200Z,9.90
2023-03-13T02:23:59.253Z,9.90
2023-03-13T02:26:25.744Z,9.63
2023-03-13T02:28:52.257Z,9.52
2023-03-13T02:31:18.845Z,9.51
2023-03-13T02:33:45.492Z,9.69
2023-03-13T02:36:13.466Z,9.18
2023-03-13T02:38:53.857Z,9.63
2023-03-13T02:41:21.767Z,9.77
2023-03-13T02:43:48.348Z,9.91
2023-03-13T02:46:17.510Z,9.87
2023-03-13T02:48:50.900Z,9.95
2023-03-13T02:51:23.445Z,9.98
2023-03-13T02:53:51.273Z,9.67
2023-03-13T02:56:20.529Z,9.60
2023-03-13T02:58:50.399Z,9.61
2023-03-13T03:01:17.236Z,9.64
2023-03-13T03:03:43.900Z,9.63
2023-03-13T03:06:10.400Z,9.68
2023-03-13T03:08:36.973Z,9.46
2023-03-13T03:11:05.319Z,9.48
2023-03-13T03:13:31.827Z,9.83
2023-03-13T03:15:58.276Z,9.72
2023-03-13T03:18:24.976Z,9.65
2023-03-13T03:20:51.460Z,9.43
2023-03-13T03:23:17.915Z,9.57
2023-03-13T03:25:44.425Z,9.60
2023-03-13T03:28:10.886Z,9.78
2023-03-13T03:30:37.365Z,9.59
2023-03-13T03:33:04.347Z,9.78
2023-03-13T03:35:30.979Z,9.60
2023-03-13T03:37:57.475Z,9.41
2023-03-13T03:40:23.956Z,9.51
2023-03-13T03:42:50.440Z,9.60
2023-03-13T03:45:16.949Z,9.91
2023-03-13T03:47:43.463Z,10.03
2023-03-13T03:50:11.110Z,9.62
2023-03-13T03:52:38.347Z,9.49
2023-03-13T03:55:05.478Z,9.53
2023-03-13T03:57:31.969Z,9.58
2023-03-13T03:59:58.427Z,9.76
2023-03-13T04:02:24.903Z,9.65
2023-03-13T04:04:51.452Z,9.91
2023-03-13T04:07:17.869Z,9.51
2023-03-13T04:09:44.324Z,9.37
2023-03-13T04:12:10.788Z,9.26
2023-03-13T04:14:37.335Z,9.58
2023-03-13T04:17:03.848Z,9.94
2023-03-13T04:19:30.357Z,9.69
2023-03-13T04:21:56.805Z,9.27
2023-03-13T04:24:23.279Z,9.51
2023-03-13T04:26:49.715Z,9.33
2023-03-13T04:29:16.191Z,9.58
2023-03-13T04:31:42.622Z,9.94
2023-03-13T04:34:09.089Z,9.84
2023-03-13T04:36:35.528Z,9.94
2023-03-13T04:39:02.009Z,9.82
2023-03-13T04:41:28.527Z,9.57
2023-03-13T04:43:55.047Z,9.80
2023-03-13T04:46:21.595Z,9.51
2023-03-13T04:48:48.082Z,9.57
2023-03-13T04:51:14.536Z,9.31
2023-03-13T04:53:40.990Z,9.55
2023-03-13T04:56:07.514Z,9.56
2023-03-13T04:58:34.017Z,9.33
2023-03-13T05:01:00.482Z,9.55
2023-03-13T05:03:27.029Z,9.66
2023-03-13T05:05:53.478Z,9.85
2023-03-13T05:08:19.996Z,9.88
2023-03-13T05:10:46.887Z,9.88
2023-03-13T05:13:13.366Z,9.97
2023-03-13T05:15:39.893Z,9.96
2023-03-13T05:18:06.449Z,9.70
2023-03-13T05:20:32.897Z,9.99
2023-03-13T05:22:59.397Z,10.06
2023-03-13T05:25:25.880Z,9.93
2023-03-13T05:27:52.354Z,9.74
2023-03-13T05:30:19.618Z,9.77
2023-03-13T05:32:46.132Z,9.68
2023-03-13T05:35:12.633Z,9.81
2023-03-13T05:37:41.265Z,10.07
2023-03-13T05:40:09.140Z,9.77
2023-03-13T05:42:35.730Z,9.55
2023-03-13T05:45:02.223Z,9.92
2023-03-13T05:47:28.665Z,9.77
2023-03-13T05:49:55.197Z,10.09
2023-03-13T05:52:21.677Z,9.96
2023-03-13T05:54:48.241Z,10.08
2023-03-13T05:57:14.817Z,9.78
2023-03-13T05:59:41.259Z,10.06
2023-03-13T06:02:07.783Z,10.22
2023-03-13T06:04:35.608Z,10.09
2023-03-13T06:07:02.172Z,10.11
2023-03-13T06:09:28.631Z,10.07
2023-03-13T06:11:55.360Z,9.93
2023-03-13T06:14:21.839Z,9.98
2023-03-13T06:16:48.418Z,10.49
2023-03-13T06:19:15.252Z,10.20
2023-03-13T06:21:41.852Z,9.85
2023-03-13T06:24:08.433Z,10.08
2023-03-13T06:26:34.869Z,10.01
2023-03-13T06:29:01.351Z,9.89
2023-03-13T06:31:27.810Z,10.33
2023-03-13T06:33:55.221Z,10.06
2023-03-13T06:36:25.594Z,9.96
2023-03-13T06:38:52.120Z,9.90
2023-03-13T06:41:18.603Z,10.24
2023-03-13T06:43:45.095Z,9.95
2023-03-13T06:46:20.668Z,10.20
2023-03-13T06:48:47.188Z,10.33
2023-03-13T06:51:14.949Z,9.88
2023-03-13T06:53:41.699Z,9.99
2023-03-13T06:56:09.231Z,10.00
2023-03-13T06:58:36.129Z,10.16
2023-03-13T07:01:10.573Z,10.28
2023-03-13T07:03:38.248Z,10.33
2023-03-13T07:06:05.932Z,10.15
2023-03-13T07:08:33.375Z,10.52
2023-03-13T07:11:02.548Z,10.52
2023-03-13T07:13:29.783Z,10.18
2023-03-13T07:15:57.367Z,10.62
2023-03-13T07:18:24.317Z,10.15
2023-03-13T07:20:55.861Z,10.46
2023-03-13T07:23:23.370Z,10.54
2023-03-13T07:26:01.083Z,10.45
2023-03-13T07:28:29.546Z,10.67
2023-03-13T07:30:56.139Z,10.61
2023-03-13T07:33:22.665Z,10.68
2023-03-13T07:35:52.451Z,10.69
2023-03-13T07:38:19.827Z,10.86
2023-03-13T07:40:51.448Z,10.97
2023-03-13T07:43:17.965Z,10.98
2023-03-13T07:46:01.490Z,10.77
2023-03-13T07:48:39.258Z,10.93
2023-03-13T07:51:07.914Z,11.00
2023-03-13T07:53:34.905Z,11.07
2023-03-13T07:56:02.762Z,10.85
2023-03-13T07:58:32.012Z,10.90
2023-03-13T08:00:59.635Z,11.10
2023-03-13T08:03:26.505Z,10.93
2023-03-13T08:06:00.744Z,10.97
2023-03-13T08:08:27.838Z,11.16
2023-03-13T08:10:54.373Z,11.16
2023-03-13T08:13:20.904Z,11.41
2023-03-13T08:15:47.399Z,11.21
2023-03-13T08:18:13.852Z,11.18
2023-03-13T08:20:40.309Z,11.27
2023-03-13T08:23:06.756Z,11.51
2023-03-13T08:25:33.470Z,11.64
2023-03-13T08:28:02.044Z,11.76
2023-03-13T08:30:29.067Z,11.53
2023-03-13T08:32:55.579Z,11.88
2023-03-13T08:35:22.135Z,11.92
2023-03-13T08:37:48.688Z,11.53
2023-03-13T08:40:15.328Z,11.76
2023-03-13T08:42:41.781Z,11.92
2023-03-13T08:45:08.783Z,11.83
2023-03-13T08:47:35.361Z,11.63
2023-03-13T08:50:02.341Z,11.99
2023-03-13T08:52:28.930Z,11.94
2023-03-13T08:54:55.494Z,12.16
2023-03-13T08:57:22.068Z,12.42
2023-03-13T08:59:49.594Z,11.99
2023-03-13T09:02:19.973Z,12.12
2023-03-13T09:04:48.314Z,12.08
2023-03-13T09:07:15.129Z,12.17
2023-03-13T09:09:41.631Z,12.45
2023-03-13T09:12:15.520Z,12.59
2023-03-13T09:14:48.356Z,12.37
2023-03-13T09:17:14.851Z,12.38
2023-03-13T09:19:54.160Z,12.50
2023-03-13T09:22:25.741Z,12.39
2023-03-13T09:24:52.203Z,12.68
2023-03-13T09:27:18.655Z,12.75
2023-03-13T09:29:45.166Z,12.73
2023-03-13T09:32:11.609Z,12.72
2023-03-13T09:34:38.073Z,13.02
2023-03-13T09:37:04.545Z,12.91
2023-03-13T09:39:31.044Z,12.94
2023-03-13T09:42:10.089Z,12.68
2023-03-13T09:44:50.479Z,13.07
2023-03-13T09:47:21.709Z,12.89
2023-03-13T09:49:57.287Z,12.72
2023-03-13T09:52:30.869Z,13.21
2023-03-13T09:55:02.903Z,13.29
2023-03-13T09:57:38.888Z,12.90
2023-03-13T10:00:12.581Z,13.07
2023-03-13T10:02:39.729Z,13.20
2023-03-13T10:05:12.586Z,13.37
2023-03-13T10:07:39.174Z,13.38
2023-03-13T10:10:13.999Z,13.30
2023-03-13T10:12:45.561Z,12.81
2023-03-13T10:15:33.863Z,13.20
2023-03-13T10:18:11.621Z,13.09
2023-03-13T10:20:39.361Z,13.38
2023-03-13T10:23:34.316Z,13.16
2023-03-13T10:26:00.842Z,13.40
2023-03-13T10:28:27.306Z,13.39
2023-03-13T10:31:03.513Z,13.49
2023-03-13T10:33:30.696Z,13.19
2023-03-13T10:36:03.439Z,13.40
2023-03-13T10:38:34.160Z,13.46
2023-03-13T10:41:06.691Z,13.56
2023-03-13T10:43:33.165Z,13.31
2023-03-13T10:45:59.635Z,13.20
2023-03-13T10:48:30.280Z,13.84
2023-03-13T10:51:02.280Z,13.57
2023-03-13T10:53:28.887Z,14.07
2023-03-13T10:55:58.403Z,13.57
2023-03-13T10:58:34.593Z,13.89
2023-03-13T11:01:17.320Z,14.08
2023-03-13T11:03:44.738Z,13.90
2023-03-13T11:06:28.358Z,13.64
2023-03-13T11:09:10.083Z,13.75
2023-03-13T11:11:51.828Z,14.24
2023-03-13T11:14:23.920Z,14.00
2023-03-13T11:16:56.456Z,13.81
2023-03-13T11:19:43.631Z,14.50
2023-03-13T11:22:30.537Z,14.85
2023-03-13T11:25:06.153Z,15.23
2023-03-13T11:27:38.778Z,14.44
2023-03-13T11:30:32.948Z,14.69
2023-03-13T11:33:02.946Z,14.93
2023-03-13T11:35:49.343Z,14.96
2023-03-13T11:38:27.460Z,15.13
2023-03-13T11:40:56.940Z,14.71
2023-03-13T11:43:41.084Z,14.95
2023-03-13T11:46:18.373Z,15.01
2023-03-13T11:49:15.902Z,15.49
2023-03-13T11:51:54.890Z,15.53
2023-03-13T11:54:47.540Z,15.12
2023-03-13T11:57:35.332Z,15.01
2023-03-13T12:00:40.805Z,15.33
2023-03-13T12:03:17.553Z,15.41
2023-03-13T12:05:52.160Z,14.85
2023-03-13T12:08:49.234Z,14.86
2023-03-13T12:11:29.021Z,15.24
2023-03-13T12:13:59.882Z,15.20
2023-03-13T12:16:50.559Z,15.80
2023-03-13T12:19:28.684Z,15.56
2023-03-13T12:21:57.216Z,15.62
2023-03-13T12:24:36.762Z,15.99
2023-03-13T12:27:55.235Z,15.83
2023-03-13T12:30:36.508Z,16.13
2023-03-13T12:33:26.533Z,15.84
2023-03-13T12:35:59.613Z,15.66
2023-03-13T12:38:40.075Z,15.38
2023-03-13T12:41:28.424Z,15.35
2023-03-13T12:44:08.313Z,15.81
2023-03-13T12:46:43.353Z,15.68
2023-03-13T12:49:38.102Z,15.21
2023-03-13T12:52:04.502Z,15.64
2023-03-13T12:54:44.583Z,15.68
2023-03-13T12:57:43.423Z,15.41
2023-03-13T13:00:17.045Z,15.70
2023-03-13T13:02:43.648Z,15.80
2023-03-13T13:05:21.328Z,15.72
2023-03-13T13:07:55.597Z,15.48
2023-03-13T13:10:26.245Z,15.86
2023-03-13T13:13:14.680Z,16.08
2023-03-13T13:16:05.144Z,16.32
2023-03-13T13:18:32.881Z,15.38
2023-03-13T13:21:02.436Z,15.76
2023-03-13T13:23:36.948Z,16.87
2023-03-13T13:26:33.794Z,16.44
2023-03-13T13:29:01.633Z,16.39
2023-03-13T13:31:56.994Z,16.04
2023-03-13T13:34:34.439Z,17.15
2023-03-13T13:37:06.077Z,16.66
2023-03-13T13:40:21.619Z,16.63
2023-03-13T13:42:59.373Z,16.66
2023-03-13T13:45:26.027Z,16.54
2023-03-13T13:48:14.998Z,16.66
2023-03-13T13:51:14.168Z,16.40
2023-03-13T13:53:48.480Z,16.68
2023-03-13T13:56:32.413Z,16.37
2023-03-13T13:59:20.239Z,16.57
2023-03-13T14:01:48.493Z,17.13
2023-03-13T14:04:28.683Z,16.68
2023-03-13T14:06:57.807Z,16.95
2023-03-13T14:09:48.234Z,16.53
2023-03-13T14:12:32.815Z,16.43
2023-03-13T14:15:20.052Z,16.67
2023-03-13T14:17:49.089Z,16.00
2023-03-13T14:20:27.968Z,16.81
2023-03-13T14:22:56.361Z,17.00
2023-03-13T14:25:24.307Z,17.05
2023-03-13T14:27:52.380Z,16.67
2023-03-13T14:30:20.966Z,16.60
2023-03-13T14:32:47.817Z,16.61
2023-03-13T14:35:19.497Z,16.47
2023-03-13T14:37:48.379Z,16.90
2023-03-13T14:40:17.817Z,16.66
2023-03-13T14:42:49.561Z,16.48
2023-03-13T14:45:22.487Z,16.63
2023-03-13T14:47:53.376Z,17.21
2023-03-13T14:50:22.729Z,16.61
2023-03-13T14:53:13.475Z,17.22
2023-03-13T14:55:44.330Z,16.98
2023-03-13T14:58:19.874Z,17.41
2023-03-13T15:00:48.364Z,17.50
2023-03-13T15:03:18.968Z,16.27
2023-03-13T15:06:13.710Z,17.02
2023-03-13T15:09:11.017Z,17.25
2023-03-13T15:11:54.942Z,16.49
2023-03-13T15:14:40.964Z,16.95
2023-03-13T15:17:16.935Z,16.80
2023-03-13T15:19:43.606Z,16.94
2023-03-13T15:22:12.911Z,16.59
2023-03-13T15:24:39.362Z,16.87
2023-03-13T15:27:15.156Z,16.93
2023-03-13T15:29:48.183Z,16.26
2023-03-13T15:32:32.918Z,16.80
2023-03-13T15:35:01.714Z,16.80
2023-03-13T15:37:30.110Z,16.74
2023-03-13T15:39:57.402Z,16.43
2023-03-13T15:42:24.831Z,15.97
2023-03-13T15:44:51.333Z,15.76
2023-03-13T15:47:43.956Z,15.71
2023-03-13T15:50:21.653Z,16.60
2023-03-13T15:52:56.770Z,16.40
2023-03-13T15:55:33.601Z,16.92
2023-03-13T15:58:01.118Z,16.52
2023-03-13T16:00:27.932Z,16.37
2023-03-13T16:17:00.461Z,16.16
2023-03-13T16:22:40.219Z,16.21
2023-03-13T16:25:18.937Z,16.01
2023-03-13T16:28:08.315Z,16.31
2023-03-13T16:30:38.104Z,15.98
2023-03-13T16:33:14.046Z,15.81
2023-03-13T16:35:56.838Z,15.90
2023-03-13T16:38:42.198Z,15.95
2023-03-13T16:41:11.072Z,16.09
2023-03-13T16:43:37.596Z,16.26
2023-03-13T16:46:10.175Z,15.72
2023-03-13T16:48:36.648Z,15.75
2023-03-13T16:51:03.731Z,15.45
2023-03-13T16:53:31.172Z,15.52
2023-03-13T16:55:57.637Z,15.31
2023-03-13T16:58:24.144Z,14.98
2023-03-13T17:01:04.304Z,15.23
2023-03-13T17:03:33.186Z,15.34
2023-03-13T17:05:59.716Z,15.22
2023-03-13T17:08:26.151Z,15.16
2023-03-13T17:10:52.671Z,14.97
2023-03-13T17:13:20.435Z,15.00
2023-03-13T17:15:46.899Z,15.30
2023-03-13T17:18:13.386Z,15.04
2023-03-13T17:20:39.982Z,14.83
2023-03-13T17:23:06.472Z,14.89
2023-03-13T17:25:33.263Z,14.59
2023-03-13T17:27:59.724Z,14.79
2023-03-13T17:30:31.207Z,14.65
2023-03-13T17:32:59.090Z,14.50
2023-03-13T17:35:25.742Z,14.66
2023-03-13T17:37:52.214Z,14.28
2023-03-13T17:40:28.004Z,14.51
2023-03-13T17:42:56.374Z,14.69
2023-03-13T17:45:23.026Z,14.46
2023-03-13T17:47:50.312Z,14.29
2023-03-13T17:50:26.902Z,14.58
2023-03-13T17:52:53.927Z,13.81
2023-03-13T17:55:20.414Z,14.46
2023-03-13T17:57:48.330Z,14.39
2023-03-13T18:00:20.789Z,14.23
2023-03-13T18:02:47.356Z,14.15
2023-03-13T18:05:13.983Z,14.33
2023-03-13T18:07:44.080Z,14.10
2023-03-13T18:10:16.688Z,13.84
2023-03-13T18:12:43.204Z,14.19
2023-03-13T18:15:10.132Z,14.09
2023-03-13T18:17:36.560Z,13.94
2023-03-13T18:20:04.848Z,13.91
2023-03-13T18:22:31.318Z,13.97
2023-03-13T18:24:57.824Z,14.25
2023-03-13T18:27:24.259Z,13.58
2023-03-13T18:29:50.745Z,13.81
2023-03-13T18:32:18.605Z,14.37
2023-03-13T18:34:45.482Z,13.72
2023-03-13T18:37:30.424Z,13.97
2023-03-13T18:39:58.036Z,13.84
2023-03-13T18:42:24.866Z,14.00
2023-03-13T18:44:51.898Z,14.30
2023-03-13T18:47:21.456Z,14.11
2023-03-13T18:49:49.917Z,14.11
2023-03-13T18:52:17.264Z,13.98
2023-03-13T18:54:45.046Z,14.03
2023-03-13T18:57:17.333Z,14.26
2023-03-13T18:59:45.069Z,13.89
2023-03-13T19:02:14.636Z,13.98
2023-03-13T19:04:41.480Z,14.14
2023-03-13T19:07:24.240Z,13.75
2023-03-13T19:09:50.810Z,14.00
2023-03-13T19:12:17.326Z,13.99
2023-03-13T19:14:44.049Z,13.90
2023-03-13T19:17:23.570Z,14.03
2023-03-13T19:19:50.330Z,13.79
2023-03-13T19:22:16.857Z,13.91
2023-03-13T19:24:43.379Z,13.92
2023-03-13T19:27:13.116Z,13.98
2023-03-13T19:29:39.953Z,13.78
2023-03-13T19:32:07.586Z,13.93
2023-03-13T19:34:34.201Z,14.11
2023-03-13T19:37:00.718Z,14.19
2023-03-13T19:39:27.208Z,13.81
2023-03-13T19:41:54.141Z,13.97
2023-03-13T19:44:20.994Z,13.77
2023-03-13T19:46:47.773Z,13.87
2023-03-13T19:49:17.390Z,13.70
2023-03-13T19:51:43.957Z,13.92
2023-03-13T19:54:11.279Z,13.82
2023-03-13T19:56:39.523Z,13.63
2023-03-13T19:59:17.606Z,14.03
2023-03-13T20:01:47.951Z,13.98
2023-03-13T20:04:15.526Z,13.75
2023-03-13T20:06:42.954Z,13.91
2023-03-13T20:09:12.038Z,13.81
2023-03-13T20:11:39.027Z,13.89
2023-03-13T20:14:05.963Z,13.30
2023-03-13T20:16:34.954Z,13.66
2023-03-13T20:19:02.319Z,13.67
2023-03-13T20:21:33.958Z,13.52
2023-03-13T20:24:00.945Z,13.30
2023-03-13T20:26:29.149Z,13.59
2023-03-13T20:28:56.055Z,13.44
2023-03-13T20:31:26.341Z,13.73
2023-03-13T20:33:52.855Z,13.21
2023-03-13T20:36:20.757Z,13.11
2023-03-13T20:38:47.948Z,13.84
2023-03-13T20:41:16.229Z,13.35
2023-03-13T20:43:42.848Z,13.19
2023-03-13T20:46:09.646Z,13.63
2023-03-13T20:48:39.309Z,13.96
2023-03-13T20:51:07.296Z,13.38
2023-03-13T20:53:38.822Z,13.35
2023-03-13T20:56:07.199Z,13.61
2023-03-13T20:58:34.828Z,13.59
2023-03-13T21:01:02.706Z,13.38
2023-03-13T21:03:29.562Z,13.29
2023-03-13T21:05:56.054Z,13.44
2023-03-13T21:08:23.400Z,13.29
2023-03-13T21:10:50.152Z,12.92
2023-03-13T21:13:16.589Z,13.42
2023-03-13T21:15:43.140Z,13.55
2023-03-13T21:18:09.798Z,13.20
2023-03-13T21:20:37.677Z,12.86
2023-03-13T21:23:04.273Z,13.15
2023-03-13T21:25:30.827Z,13.76
2023-03-13T21:27:57.295Z,13.02
2023-03-13T21:30:24.372Z,13.68
2023-03-13T21:32:50.928Z,13.03
2023-03-13T21:35:17.483Z,12.91
2023-03-13T21:37:44.280Z,13.48
2023-03-13T21:40:11.881Z,13.30
2023-03-13T21:42:38.431Z,12.94
2023-03-13T21:45:07.064Z,13.27
2023-03-13T21:47:36.974Z,12.87
2023-03-13T21:50:07.064Z,13.11
2023-03-13T21:52:40.655Z,13.16
2023-03-13T21:55:09.164Z,13.25
2023-03-13T21:57:36.917Z,13.25
2023-03-13T22:00:08.259Z,13.60
2023-03-13T22:02:36.497Z,13.47
2023-03-13T22:05:03.876Z,13.16
2023-03-13T22:07:33.247Z,13.40
2023-03-13T22:09:59.901Z,12.93
2023-03-13T22:12:30.141Z,13.39
2023-03-13T22:14:57.870Z,13.22
2023-03-13T22:17:25.401Z,13.31
2023-03-13T22:19:51.867Z,13.10
2023-03-13T22:22:20.059Z,13.27
2023-03-13T22:24:46.697Z,12.65
2023-03-13T22:27:13.590Z,12.68
2023-03-13T22:29:40.035Z,12.64
2023-03-13T22:32:06.828Z,12.97
2023-03-13T22:34:33.274Z,13.13
2023-03-13T22:36:59.795Z,12.94
2023-03-13T22:39:26.259Z,13.01
2023-03-13T22:41:52.733Z,12.75
2023-03-13T22:44:19.320Z,12.87
2023-03-13T22:46:45.780Z,12.75
2023-03-13T22:49:12.252Z,12.87
2023-03-13T22:51:38.766Z,12.92
2023-03-13T22:54:05.272Z,12.72
2023-03-13T22:56:31.736Z,13.02
2023-03-13T22:58:58.209Z,12.83
2023-03-13T23:01:24.796Z,12.45
2023-03-13T23:03:51.260Z,12.55
2023-03-13T23:06:21.425Z,13.04
2023-03-13T23:08:48.070Z,12.84
2023-03-13T23:11:15.147Z,12.81
2023-03-13T23:13:41.763Z,12.97
2023-03-13T23:16:10.029Z,12.94
2023-03-13T23:18:37.226Z,12.60
2023-03-13T23:21:05.942Z,12.37
2023-03-13T23:23:33.095Z,12.31
2023-03-13T23:26:00.558Z,12.38
2023-03-13T23:28:27.572Z,12.48
2023-03-13T23:30:54.124Z,12.55
2023-03-13T23:33:20.619Z,12.43
2023-03-13T23:35:47.110Z,12.28
2023-03-13T23:38:13.705Z,12.71
2023-03-13T23:40:40.168Z,12.57
2023-03-13T23:43:07.640Z,12.51
2023-03-13T23:45:36.512Z,12.51
2023-03-13T23:48:02.992Z,12.77
2023-03-13T23:50:29.642Z,12.75
2023-03-13T23:52:56.154Z,12.47
2023-03-13T23:55:22.598Z,12.53
2023-03-13T23:57:50.462Z,12.18
